Aviation Digital Data Service (ADDS)

Output produced by METARs form (0030 UTC 23 February 2018)
found at http://www.aviationweather.gov/adds/metars/
 
KUNV 222353Z 03006KT 10SM OVC011 03/02 A3055
KUNV 222253Z 04004KT 10SM OVC011 03/02 A3052
KUNV 222153Z 04005KT 5SM BR SCT006 OVC011 03/02 A3054
KUNV 222053Z 07007KT 3SM BR BKN004 BKN025 OVC040 02/02 A3054
KUNV 221953Z 03009KT 2SM DZ BR BKN006 OVC013 02/02 A3054
KUNV 221853Z 04005KT 2 1/2SM RA BR OVC006 02/01 A3051
KUNV 221753Z 04008KT 2 1/2SM RA BR BKN004 BKN008 OVC014 01/01 A3053
KUNV 221737Z 05008KT 2 1/2SM RA BR BKN004 BKN008 OVC014 01/01 A3053
KUNV 221713Z 03010KT 4SM RA BR SCT004 BKN014 OVC025 01/00 A3053
KUNV 221653Z 03010KT 2 1/2SM RA BR BKN005 OVC016 01/00 A3055
KUNV 221553Z 04010KT 2 3/4SM RA BR OVC005 01/00 A3052
KUNV 221453Z 04010KT 3SM RA BR OVC006 00/00 A3055
KUNV 221431Z 03008KT 3SM RA BR OVC004 00/00 A3058
KUNV 221420Z 06010KT 3SM RA BR SCT004 BKN015 OVC030 00/00 A3058
KUNV 221353Z 04010KT 3SM -RA BR SCT015 SCT030 OVC039 01/00 A3059
KUNV 221253Z 05010G19KT 3SM -RA BR SCT015 BKN030 OVC040 01/00 A3058
KUNV 221153Z 05007KT 3SM -RA BKN030 OVC041 02/00 A3054
KUNV 221053Z COR 06008KT 10SM -DZ OVC038 03/M01 A3051
KUNV 221035Z AUTO 04009KT 10SM SCT039 OVC048 03/M01 A3050 RMK AO2 T00301010
KUNV 221015Z AUTO 03009KT 10SM RA SCT038 OVC050 03/M01 A3050 RMK AO2 T00321012
KUNV 220955Z AUTO 03008KT 7SM RA SCT038 BKN045 OVC060 04/M01 A3049 RMK AO2 T00351014
KUNV 220935Z AUTO 05006KT 10SM -DZ OVC043 04/M02 A3050 RMK AO2 T00401022
KUNV 220915Z AUTO 04008KT 10SM DZ SCT041 OVC050 05/M03 A3050 RMK AO2 T00461027
KUNV 220855Z AUTO 04007KT 10SM SCT044 BKN050 OVC090 05/M03 A3049 RMK AO2 T00471031
KUNV 220835Z AUTO 04006KT 10SM SCT042 OVC048 05/M03 A3050 RMK AO2 T00501033
KUNV 220815Z AUTO 04007KT 10SM -DZ OVC050 05/M03 A3049 RMK AO2 T00501032
KUNV 220755Z AUTO 04007KT 10SM DZ OVC050 06/M03 A3050 RMK AO2 T00551033
KUNV 220735Z AUTO 04007KT 10SM OVC050 06/M03 A3051 RMK AO2 T00601031
KUNV 220715Z AUTO 04005KT 10SM SCT037 OVC050 06/M03 A3051 RMK AO2 T00601030
KUNV 220655Z AUTO 04007KT 10SM BKN037 OVC050 06/M03 A3051 RMK AO2 T00621028
KUNV 220635Z AUTO 04008KT 10SM BKN039 OVC050 06/M02 A3050 RMK AO2 T00621023
KUNV 220615Z AUTO 03004KT 10SM SCT037 OVC050 06/M03 A3051 RMK AO2 T00631026
KUNV 220555Z AUTO 05006KT 10SM SCT037 OVC050 06/M02 A3050 RMK AO2 T00641021 10145 20064
KUNV 220535Z AUTO 04006KT 10SM SCT037 OVC050 07/M02 A3051 RMK AO2 T00681017
KUNV 220515Z AUTO 05007KT 10SM SCT034 BKN050 OVC070 07/00 A3050 RMK AO2 T00700003
KUNV 220455Z AUTO 03006KT 10SM SCT034 SCT050 OVC070 08/02 A3050 RMK AO2 T00750018
KUNV 220435Z AUTO 02007KT 10SM SCT034 OVC070 08/03 A3050 RMK AO2 T00770029
KUNV 220415Z AUTO 02009KT 10SM OVC034 08/04 A3050 RMK AO2 T00800035
KUNV 220355Z AUTO 02007KT 10SM OVC032 08/03 A3049 RMK AO2 T00820032 402280082
KUNV 220030Z 30008KT 10SM BKN013 OVC018 13/10 A3041
KUNV 212353Z 30008KT 10SM OVC055 15/11 A3039
KUNV 212253Z 28005KT 10SM VCSH SCT038 BKN045 BKN050 15/11 A3037
KUNV 212153Z 28007KT 10SM BKN042 BKN060 OVC085 17/11 A3032
KUNV 212053Z 27010G20KT 10SM BKN037 BKN060 BKN075 18/11 A3030
KUNV 211953Z 28011G22KT 10SM SCT055 SCT070 BKN090 22/14 A3025
KUNV 211853Z 24010G22KT 10SM BKN055 BKN060 BKN085 22/13 A3022
KUNV 211753Z 21008KT 10SM BKN050 OVC065 22/13 A3022
KUNV 211653Z 20008KT 10SM OVC048 20/12 A3023
KUNV 211553Z 20010G18KT 10SM BKN050 20/12 A3024
KUNV 211453Z 21008G15KT 10SM SCT080 18/12 A3024
KUNV 211353Z 22008KT 10SM SCT075 16/12 A3025
KUNV 211253Z 27006KT 10SM BKN080 13/11 A3024